• Join FlightAware (Why Join?)
  • Login
  • US Flag 
09:34AM EST


 

Airport Tracker/Info


-or-


 

Live Flight TrackerFlight Track Log ✈ N552SR ✈ 16-Jun-2013 ✈ KSYR - KBDR

Flight Track Log - Related Links

Times and Time Zones

All times are in EDT time to prevent confusion due to time zone crossing. See the N552SR flight status page for this flight to view local times or setup timezone preferences in your user account.

Time Position Orientation Groundspeed Altitude Reporting Facility
EDT Latitude Longitude Course Direction KTS MPH feet Rate Location/Type
07:15PM 43.0764 -76.1328 174° South 136 157 2,800  Level Boston Center
07:17PM 43.0464 -76.0914 135° Southeast 166 191 3,800 900 Climbing Boston Center
07:18PM 43.0183 -76.0583 139° Southeast 160 184 4,700 840 Climbing Boston Center
07:19PM 42.9822 -76.0081 134° Southeast 165 190 5,600 780 Climbing Boston Center
07:20PM 42.9483 -75.9633 136° Southeast 172 198 6,300 540 Climbing Boston Center
07:21PM 42.9206 -75.9136 127° Southeast 173 199 6,800 300 Climbing Boston Center
07:22PM 42.8808 -75.8519 131° Southeast 207 238 7,000 60 Climbing Boston Center
07:23PM 42.8447 -75.8017 134° Southeast 190 219 7,000  Level Boston Center
07:24PM 42.7986 -75.7342 133° Southeast 193 222 7,000  Level Boston Center
07:25PM 42.7628 -75.6811 133° Southeast 198 228 7,000  Level Boston Center
07:26PM 42.7269 -75.6200 129° Southeast 243 280 7,000  Level Boston Center
07:27PM 42.6864 -75.5756 141° Southeast 208 239 7,000  Level Boston Center
07:28PM 42.6406 -75.5056 132° Southeast 202 232 7,000  Level Boston Center
07:29PM 42.6022 -75.4500 133° Southeast 202 232 7,000  Level Boston Center
07:30PM 42.5622 -75.3917 133° Southeast 202 232 7,000  Level Boston Center
07:31PM 42.5242 -75.3333 132° Southeast 207 238 7,000  Level Boston Center
07:32PM 42.4775 -75.2722 136° Southeast 202 232 7,000  Level Boston Center
07:33PM 42.4497 -75.2231 127° Southeast 202 232 7,000  Level Boston Center
07:34PM 42.4200 -75.1514 119° Southeast 207 238 7,000  Level Boston Center
07:35PM 42.3947 -75.0744 114° Southeast 192 221 7,000  Level Boston Center
07:36PM 42.3733 -75.0061 113° Southeast 187 215 7,000  Level Boston Center
07:37PM 42.3519 -74.9406 114° Southeast 187 215 7,000  Level Boston Center
07:38PM 42.3264 -74.8722 117° Southeast 187 215 7,000  Level Boston Center
07:39PM 42.2989 -74.7925 115° Southeast 192 221 7,000  Level Boston Center
07:40PM 42.2753 -74.7214 114° Southeast 199 229 7,000  Level Boston Center
07:41PM 42.2517 -74.6503 114° Southeast 199 229 7,000  Level Boston Center
07:42PM 42.2239 -74.5850 120° Southeast 199 229 7,000  Level Boston Center
07:43PM 42.1981 -74.5194 118° Southeast 199 229 7,000  Level Boston Center
07:44PM 42.1681 -74.4486 120° Southeast 206 237 7,000  Level Boston Center
07:45PM 42.1336 -74.3831 125° Southeast 211 243 7,000  Level Boston Center
07:46PM 42.1056 -74.3150 119° Southeast 211 243 7,000  Level Boston Center
07:47PM 42.0753 -74.2497 122° Southeast 211 243 7,000  Level Boston Center
07:48PM 42.0431 -74.1844 124° Southeast 218 251 7,000  Level Boston Center
07:49PM 42.0108 -74.1167 123° Southeast 218 251 7,000 -60 Level Boston Center
07:50PM 41.9658 -74.0483 132° Southeast 206 237 6,900 -60 Descending Boston Center
07:51PM 41.9311 -74.0000 134° Southeast 200 230 6,900 -120 Level Boston Center
07:52PM 41.8861 -73.9431 137° Southeast 200 230 6,700 -300 Descending Boston Center
07:53PM 41.8492 -73.8978 138° Southeast 200 230 6,400 -360 Descending Boston Center
07:54PM 41.8122 -73.8467 134° Southeast 200 230 6,000 -300 Descending Boston Center
07:55PM 41.7650 -73.7872 137° Southeast 211 243 5,900 -60 Descending Boston Center
07:56PM 41.7219 -73.7278 134° Southeast 211 243 5,900  Level Boston Center
07:57PM 41.6850 -73.6800 136° Southeast 211 243 5,900  Level Boston Center
07:58PM 41.6397 -73.6233 137° Southeast 211 243 6,000  Climbing Boston Center
07:59PM 41.6047 -73.5756 134° Southeast 206 237 6,000  Level Boston Center
08:00PM 41.5594 -73.5164 136° Southeast 206 237 6,000 -120 Level Boston Center
08:01PM 41.5203 -73.4742 141° Southeast 206 237 5,800 -240 Descending Boston Center
08:04PM 41.4500 -73.3167 121° Southeast 206 237 5,200 -300 Descending New York TRACON
08:05PM 41.4167 -73.2500 124° Southeast 216 249 4,800 -420 Descending New York TRACON
08:06PM 41.3833 -73.1667 118° Southeast 217 250 4,400 -600 Descending New York TRACON
08:07PM 41.3500 -73.1000 124° Southeast 214 246 3,700 -780 Descending New York TRACON
08:08PM 41.3167 -73.0667 143° Southeast 200 230 2,900 -780 Descending New York TRACON
08:09PM 41.2667 -73.0500 166° South 168 193 2,200 -780 Descending New York TRACON
08:10PM 41.2167 -73.0667 194° South 158 182 1,400 -660 Descending New York TRACON
08:11PM 41.2000 -73.0833 217° Southwest 106 122 900 -540 Descending New York TRACON
08:13PM 41.1500 -73.1167 143° Southeast  Level FlightAware Approximate
08:20PM 41.1635 -73.1262 143° Southeast  Level Estimated